createdAt,value
2023-01-28T00:04:24.137Z,47.17
2023-01-28T00:09:27.786Z,46.08
2023-01-28T00:14:31.355Z,42.88
2023-01-28T00:19:36.324Z,47.58
2023-01-28T00:24:39.747Z,45.15
2023-01-28T00:29:43.433Z,41.67
2023-01-28T00:34:50.105Z,46.42
2023-01-28T00:39:53.512Z,39.20
2023-01-28T00:44:56.907Z,35.92
2023-01-28T00:50:01.673Z,40.03
2023-01-28T00:55:05.739Z,40.72
2023-01-28T01:00:10.505Z,35.05
2023-01-28T01:05:16.132Z,31.27
2023-01-28T01:10:21.136Z,32.58
2023-01-28T01:15:24.918Z,34.28
2023-01-28T01:20:33.450Z,41.63
2023-01-28T01:25:36.883Z,40.60
2023-01-28T01:30:40.318Z,37.30
2023-01-28T01:35:45.301Z,35.10
2023-01-28T01:40:48.851Z,34.72
2023-01-28T01:45:55.217Z,34.15
2023-01-28T01:51:03.167Z,36.05
2023-01-28T01:56:09.566Z,33.13
2023-01-28T02:01:14.501Z,33.30
2023-01-28T02:06:19.271Z,32.08
2023-01-28T02:11:24.203Z,31.38
2023-01-28T02:16:29.004Z,31.38
2023-01-28T02:22:08.774Z,36.05
2023-01-28T02:27:22.906Z,37.85
2023-01-28T02:32:34.001Z,31.33
2023-01-28T02:37:42.703Z,25.67
2023-01-28T02:42:46.091Z,24.90
2023-01-28T02:48:00.123Z,30.65
2023-01-28T02:53:31.755Z,24.98
2023-01-28T02:58:40.200Z,23.63
2023-01-28T03:03:55.639Z,21.60
2023-01-28T03:09:21.494Z,22.80
2023-01-28T03:14:44.098Z,21.63
2023-01-28T03:20:07.787Z,22.83
2023-01-28T03:25:33.139Z,25.95
2023-01-28T03:31:01.738Z,25.40
2023-01-28T03:36:26.994Z,27.55
2023-01-28T03:41:30.419Z,26.33
2023-01-28T03:46:35.914Z,25.05
2023-01-28T03:51:40.940Z,24.45
2023-01-28T03:56:44.323Z,26.63
2023-01-28T04:01:50.710Z,28.10
2023-01-28T04:06:56.541Z,30.30
2023-01-28T04:12:00.205Z,26.90
2023-01-28T04:17:03.687Z,28.95
2023-01-28T04:22:12.568Z,26.60
2023-01-28T04:27:15.976Z,26.95
2023-01-28T04:32:19.649Z,25.50
2023-01-28T04:37:24.483Z,29.70
2023-01-28T04:42:27.896Z,23.30
2023-01-28T04:47:31.724Z,23.27
2023-01-28T04:52:36.497Z,25.65
2023-01-28T04:57:39.865Z,24.75
2023-01-28T05:02:43.274Z,29.25
2023-01-28T05:07:52.387Z,28.00
2023-01-28T05:12:56.088Z,30.40
2023-01-28T05:18:00.144Z,26.52
2023-01-28T05:23:05.506Z,30.23
2023-01-28T05:28:09.282Z,31.77
2023-01-28T05:33:12.700Z,32.13
2023-01-28T05:38:18.049Z,36.97
2023-01-28T05:43:22.256Z,32.78
2023-01-28T05:48:25.704Z,36.65
2023-01-28T05:53:30.513Z,40.20
2023-01-28T05:58:34.028Z,40.67
2023-01-28T06:03:37.402Z,40.47
2023-01-28T06:08:42.297Z,47.63
2023-01-28T06:13:45.684Z,41.80
2023-01-28T06:18:49.122Z,42.50
2023-01-28T06:23:54.291Z,39.55
2023-01-28T06:28:57.662Z,37.90
2023-01-28T06:34:01.097Z,35.60
2023-01-28T06:39:06.038Z,37.00
2023-01-28T06:44:09.829Z,38.60
2023-01-28T06:49:13.242Z,34.58
2023-01-28T06:54:18.054Z,35.53
2023-01-28T06:59:21.734Z,35.75
2023-01-28T07:04:25.213Z,36.13
2023-01-28T07:09:30.029Z,31.77
2023-01-28T07:14:33.417Z,33.20
2023-01-28T07:19:38.002Z,38.47
2023-01-28T07:24:43.554Z,32.90
2023-01-28T07:29:47.071Z,35.08
2023-01-28T07:34:50.650Z,34.65
2023-01-28T07:39:55.802Z,32.67
2023-01-28T07:44:59.230Z,26.95
2023-01-28T07:50:02.620Z,33.90
2023-01-28T07:55:08.072Z,33.42
2023-01-28T08:00:13.290Z,30.85
2023-01-28T08:05:18.308Z,30.50
2023-01-28T08:10:23.139Z,35.08
2023-01-28T08:15:27.587Z,31.52
2023-01-28T08:20:31.708Z,30.63
2023-01-28T08:25:37.655Z,32.47
2023-01-28T08:30:41.327Z,33.55
2023-01-28T08:35:45.401Z,36.63
2023-01-28T08:40:51.134Z,46.88
2023-01-28T08:45:54.500Z,37.00
2023-01-28T08:51:00.209Z,31.10
2023-01-28T08:56:05.346Z,32.67
2023-01-28T09:01:08.853Z,35.40
2023-01-28T09:06:12.484Z,34.60
2023-01-28T09:11:17.313Z,30.25
2023-01-28T09:16:21.519Z,31.85
2023-01-28T09:21:24.922Z,29.92
2023-01-28T09:26:29.997Z,28.30
2023-01-28T09:31:33.510Z,36.05
2023-01-28T09:36:37.378Z,36.20
2023-01-28T09:41:56.008Z,37.72
2023-01-28T09:47:02.920Z,33.90
2023-01-28T09:52:06.462Z,34.97
2023-01-28T09:57:18.453Z,37.88
2023-01-28T10:02:36.634Z,33.60
2023-01-28T10:07:49.567Z,29.83
2023-01-28T10:13:21.774Z,30.70
2023-01-28T10:18:36.234Z,28.67
2023-01-28T10:23:48.952Z,29.38
2023-01-28T10:28:58.158Z,26.67
2023-01-28T10:34:02.054Z,28.77
2023-01-28T10:39:06.795Z,27.58
2023-01-28T10:44:18.329Z,27.73
2023-01-28T10:49:26.478Z,26.63
2023-01-28T10:54:30.627Z,33.83
2023-01-28T10:59:41.652Z,30.83
2023-01-28T11:04:45.028Z,32.47
2023-01-28T11:09:50.253Z,29.48
2023-01-28T11:14:56.931Z,34.75
2023-01-28T11:20:02.697Z,30.25
2023-01-28T11:25:15.475Z,30.05
2023-01-28T11:30:25.499Z,29.13
2023-01-28T11:35:30.849Z,24.10
2023-01-28T11:40:34.345Z,25.95
2023-01-28T11:45:45.389Z,25.02
2023-01-28T11:50:58.303Z,22.95
2023-01-28T11:56:17.434Z,24.30
2023-01-28T12:01:27.826Z,21.38
2023-01-28T12:06:47.039Z,18.10
2023-01-28T12:12:12.797Z,18.15
2023-01-28T12:17:26.450Z,14.30
2023-01-28T12:22:59.153Z,16.38
2023-01-28T12:28:12.347Z,16.15
2023-01-28T12:33:50.339Z,15.13
2023-01-28T12:39:05.302Z,13.93
2023-01-28T12:44:13.000Z,20.10
2023-01-28T12:49:22.959Z,17.15
2023-01-28T12:54:30.131Z,21.10
2023-01-28T12:59:40.751Z,20.27
2023-01-28T13:04:52.656Z,21.85
2023-01-28T13:10:04.820Z,16.08
2023-01-28T13:15:15.297Z,22.02
2023-01-28T13:20:37.693Z,17.10
2023-01-28T13:25:50.406Z,14.85
2023-01-28T13:31:02.835Z,16.75
2023-01-28T13:36:23.694Z,15.50
2023-01-28T13:41:38.897Z,12.38
2023-01-28T13:46:42.536Z,14.15
2023-01-28T13:51:59.691Z,12.50
2023-01-28T13:57:39.231Z,13.38
2023-01-28T14:03:21.271Z,14.10
2023-01-28T14:09:04.592Z,12.10
2023-01-28T14:14:42.521Z,12.75
2023-01-28T14:19:47.277Z,10.50
2023-01-28T14:24:52.635Z,12.82
2023-01-28T14:30:07.920Z,8.82
2023-01-28T14:35:17.442Z,10.68
2023-01-28T14:40:22.749Z,12.85
2023-01-28T14:45:50.513Z,9.75
2023-01-28T14:51:07.119Z,11.77
2023-01-28T14:56:21.742Z,10.50
2023-01-28T15:01:26.998Z,10.15
2023-01-28T15:06:36.592Z,12.07
2023-01-28T15:11:45.018Z,6.32
2023-01-28T15:16:50.197Z,6.95
2023-01-28T15:21:57.690Z,6.30
2023-01-28T15:27:03.092Z,7.82
2023-01-28T15:32:07.212Z,6.88
2023-01-28T15:37:13.172Z,8.63
2023-01-28T15:42:23.223Z,8.98
2023-01-28T15:47:30.119Z,11.00
2023-01-28T15:52:36.010Z,13.40
2023-01-28T15:57:40.811Z,11.93
2023-01-28T16:02:46.130Z,12.43
2023-01-28T16:07:49.732Z,10.65
2023-01-28T16:12:57.335Z,12.18
2023-01-28T16:18:00.806Z,10.68
2023-01-28T16:23:05.167Z,12.75
2023-01-28T16:28:18.212Z,13.38
2023-01-28T16:33:22.977Z,11.98
2023-01-28T16:43:31.614Z,13.68
2023-01-28T16:48:35.061Z,15.88
2023-01-28T16:53:39.258Z,12.32
2023-01-28T16:58:46.700Z,13.98
2023-01-28T17:03:50.679Z,15.20
2023-01-28T17:08:54.080Z,15.05
2023-01-28T17:13:58.967Z,12.85
2023-01-28T17:19:02.345Z,12.90
2023-01-28T17:24:07.506Z,11.40
2023-01-28T17:29:12.354Z,30.88
2023-01-28T17:34:15.929Z,12.60
2023-01-28T17:39:19.748Z,12.60
2023-01-28T17:44:24.713Z,13.60
2023-01-28T17:49:29.323Z,15.98
2023-01-28T17:54:34.692Z,17.52
2023-01-28T17:59:41.883Z,13.73
2023-01-28T18:04:45.365Z,14.20
2023-01-28T18:09:50.009Z,12.05
2023-01-28T18:14:56.643Z,12.75
2023-01-28T18:20:00.391Z,15.15
2023-01-28T18:25:05.394Z,13.60
2023-01-28T18:30:11.906Z,15.55
2023-01-28T18:35:16.006Z,14.82
2023-01-28T18:40:19.727Z,19.30
2023-01-28T18:45:26.264Z,15.23
2023-01-28T18:50:32.370Z,14.15
2023-01-28T18:55:37.115Z,12.77
2023-01-28T19:00:45.099Z,17.23
2023-01-28T19:05:48.558Z,14.13
2023-01-28T19:10:56.995Z,14.95
2023-01-28T19:16:04.507Z,11.43
2023-01-28T19:21:11.381Z,13.48
2023-01-28T19:26:18.223Z,9.55
2023-01-28T19:31:25.154Z,12.57
2023-01-28T19:36:29.998Z,9.60
2023-01-28T19:41:33.510Z,10.52
2023-01-28T19:46:38.757Z,8.65
2023-01-28T19:51:42.125Z,8.80
2023-01-28T19:56:45.539Z,7.72
2023-01-28T20:01:50.673Z,9.70
2023-01-28T20:06:54.193Z,8.95
2023-01-28T20:11:57.954Z,8.40
2023-01-28T20:17:02.752Z,7.78
2023-01-28T20:22:06.545Z,7.30
2023-01-28T20:27:10.021Z,12.95
2023-01-28T20:32:19.115Z,14.43
2023-01-28T20:37:23.720Z,12.02
2023-01-28T20:42:27.143Z,12.30
2023-01-28T20:47:32.546Z,12.73
2023-01-28T20:52:35.954Z,12.25
2023-01-28T20:57:39.350Z,12.70
2023-01-28T21:02:46.028Z,12.38
2023-01-28T21:07:51.993Z,10.65
2023-01-28T21:12:55.440Z,15.13
2023-01-28T21:18:00.243Z,10.88
2023-01-28T21:23:03.671Z,10.30
2023-01-28T21:28:07.293Z,12.40
2023-01-28T21:33:12.529Z,10.57
2023-01-28T21:38:15.965Z,12.93
2023-01-28T21:43:20.162Z,11.75
2023-01-28T21:48:25.611Z,13.85
2023-01-28T21:53:29.111Z,13.43
2023-01-28T21:58:50.302Z,15.38
2023-01-28T22:03:55.182Z,19.08
2023-01-28T22:08:58.612Z,15.73
2023-01-28T22:14:02.051Z,18.77
2023-01-28T22:19:07.119Z,19.30
2023-01-28T22:24:12.715Z,12.93
2023-01-28T22:29:20.805Z,13.23
2023-01-28T22:34:25.955Z,10.13
2023-01-28T22:39:29.516Z,10.77
2023-01-28T22:44:33.023Z,10.60
2023-01-28T22:49:37.931Z,11.18
2023-01-28T22:54:41.365Z,11.25
2023-01-28T22:59:59.315Z,14.55
2023-01-28T23:05:05.522Z,9.57
2023-01-28T23:10:10.632Z,12.30
2023-01-28T23:15:31.949Z,9.10
2023-01-28T23:20:57.437Z,8.18
2023-01-28T23:26:01.158Z,11.60
2023-01-28T23:31:04.855Z,9.98
2023-01-28T23:36:10.133Z,10.43
2023-01-28T23:41:13.547Z,9.77
2023-01-28T23:46:19.394Z,11.18
2023-01-28T23:51:25.978Z,9.05
2023-01-28T23:56:29.612Z,9.82
